Time;durP1;ratioP1;P1;durP2;ratioP2;P2;SDS_P1;SDS_P2;PMS_P1;PMS_P2;Temp;Humidity;BMP_temperature;BMP_pressure;BME280_temperature;BME280_humidity;BME280_pressure;Samples;Min_cycle;Max_cycle;Signal;HPM_P1;HPM_P2
2020/12/12 00:02:18;;;;;;;46.90;24.37;;;2.10;99.90;;;;;;5108440;28;20214;-77
2020/12/12 00:04:44;;;;;;;46.77;25.20;;;2.20;99.90;;;;;;5108643;28;20202;-77
2020/12/12 00:07:11;;;;;;;51.33;25.00;;;2.10;99.90;;;;;;5108499;28;20225;-77
2020/12/12 00:09:38;;;;;;;48.43;24.40;;;2.10;99.90;;;;;;5108613;28;20332;-77
2020/12/12 00:12:05;;;;;;;47.20;23.77;;;2.10;99.90;;;;;;5108385;28;20289;-77
2020/12/12 00:14:32;;;;;;;49.33;25.03;;;2.10;99.90;;;;;;5108730;28;20301;-77
2020/12/12 00:16:58;;;;;;;53.50;25.50;;;2.10;99.90;;;;;;5091604;28;20305;-77
2020/12/12 00:19:25;;;;;;;48.60;26.03;;;2.10;99.90;;;;;;5092137;28;20343;-77
2020/12/12 00:21:51;;;;;;;43.63;24.43;;;2.10;99.90;;;;;;5092210;28;20213;-77
2020/12/12 00:24:18;;;;;;;45.03;24.17;;;2.10;99.90;;;;;;5091709;28;20217;-77
2020/12/12 00:26:44;;;;;;;49.57;25.47;;;2.00;99.90;;;;;;5092231;28;20203;-77
2020/12/12 00:29:13;;;;;;;50.97;25.53;;;2.00;99.90;;;;;;5091947;28;20610;-77
2020/12/12 00:31:39;;;;;;;51.27;24.97;;;2.00;99.90;;;;;;5091738;28;20204;-76
2020/12/12 00:34:06;;;;;;;57.13;25.67;;;2.00;99.90;;;;;;5092123;28;20206;-76
2020/12/12 00:36:37;;;;;;;53.37;25.63;;;2.00;99.90;;;;;;5091652;28;20213;-76
2020/12/12 00:39:03;;;;;;;51.40;24.87;;;2.00;99.90;;;;;;5091913;28;20268;-77
2020/12/12 00:41:34;;;;;;;48.20;23.77;;;2.00;99.90;;;;;;5091439;28;20203;-76
2020/12/12 00:44:01;;;;;;;48.03;24.90;;;2.00;99.90;;;;;;5092052;28;20213;-76
2020/12/12 00:46:28;;;;;;;48.67;26.13;;;2.00;99.90;;;;;;5112057;27;20288;-76
2020/12/12 00:48:55;;;;;;;46.03;24.70;;;2.00;99.90;;;;;;5111916;28;20233;-77
2020/12/12 00:51:21;;;;;;;54.03;26.00;;;2.00;99.90;;;;;;5111855;28;20290;-78
2020/12/12 00:53:48;;;;;;;46.27;24.23;;;2.00;99.90;;;;;;5112088;28;20328;-78
2020/12/12 00:56:15;;;;;;;49.10;25.60;;;2.00;99.90;;;;;;5111680;28;20206;-78
2020/12/12 00:58:41;;;;;;;48.67;26.07;;;1.90;99.90;;;;;;5112279;28;20206;-78
2020/12/12 01:01:08;;;;;;;45.60;24.00;;;2.00;99.90;;;;;;5112102;28;20202;-78
2020/12/12 01:03:35;;;;;;;49.73;25.30;;;2.00;99.90;;;;;;5111845;28;20294;-78
2020/12/12 01:06:02;;;;;;;47.73;24.43;;;1.90;99.90;;;;;;5111956;28;20305;-78
2020/12/12 01:08:28;;;;;;;49.70;24.80;;;1.90;99.90;;;;;;5112300;28;20204;-78
2020/12/12 01:10:55;;;;;;;51.27;25.83;;;1.90;99.90;;;;;;5111627;28;20741;-77
2020/12/12 01:13:21;;;;;;;51.93;26.27;;;1.90;99.90;;;;;;5111926;28;20635;-78
2020/12/12 01:15:47;;;;;;;48.30;24.00;;;1.90;99.90;;;;;;5111518;28;20206;-77
2020/12/12 01:18:14;;;;;;;48.73;24.87;;;1.90;99.90;;;;;;5111159;28;20297;-77
2020/12/12 01:20:41;;;;;;;47.13;24.43;;;1.90;99.90;;;;;;5111167;28;20333;-77
2020/12/12 01:23:08;;;;;;;47.47;25.57;;;1.90;99.90;;;;;;5111261;28;20341;-77
2020/12/12 01:25:38;;;;;;;52.57;25.87;;;1.90;99.90;;;;;;5111683;28;20230;-77
2020/12/12 01:28:04;;;;;;;51.30;25.53;;;1.90;99.90;;;;;;5110437;28;20210;-77
2020/12/12 01:30:31;;;;;;;50.27;26.30;;;1.90;99.90;;;;;;5111014;28;20321;-77
2020/12/12 01:32:57;;;;;;;49.40;25.93;;;1.90;99.90;;;;;;5111423;28;20202;-77
2020/12/12 01:35:23;;;;;;;47.17;25.00;;;1.90;99.90;;;;;;5111298;28;20288;-77
2020/12/12 01:37:51;;;;;;;46.80;24.80;;;1.90;99.90;;;;;;5111326;28;20218;-76
2020/12/12 01:40:17;;;;;;;47.67;24.50;;;1.90;99.90;;;;;;5111223;28;20202;-77
2020/12/12 01:42:44;;;;;;;48.63;25.23;;;1.90;99.90;;;;;;5111135;28;20236;-75
2020/12/12 01:45:10;;;;;;;49.23;25.50;;;1.90;99.90;;;;;;5111122;28;20551;-76
2020/12/12 01:47:37;;;;;;;45.37;24.67;;;1.90;99.90;;;;;;5111200;28;20218;-76
2020/12/12 01:50:05;;;;;;;49.30;24.23;;;1.90;99.90;;;;;;5111097;28;20232;-76
2020/12/12 01:52:33;;;;;;;53.10;25.50;;;1.90;99.90;;;;;;5110784;28;20202;-79
2020/12/12 01:55:00;;;;;;;48.27;24.73;;;1.90;99.90;;;;;;5110757;28;20686;-79
2020/12/12 01:57:27;;;;;;;46.90;24.00;;;1.90;99.90;;;;;;5111044;27;20217;-79
2020/12/12 01:59:53;;;;;;;51.13;25.33;;;1.90;99.90;;;;;;5110813;28;20542;-80
2020/12/12 02:02:22;;;;;;;49.63;24.43;;;1.90;99.90;;;;;;5110359;28;20292;-79
2020/12/12 02:04:51;;;;;;;51.70;25.70;;;1.90;99.90;;;;;;5110660;28;20300;-79
2020/12/12 02:07:19;;;;;;;52.80;25.00;;;1.90;99.90;;;;;;5110474;28;20363;-79
2020/12/12 02:09:46;;;;;;;56.23;26.67;;;1.90;99.90;;;;;;5110498;28;20237;-79
2020/12/12 02:12:14;;;;;;;48.23;24.67;;;1.90;99.90;;;;;;5110222;28;20206;-79
2020/12/12 02:14:40;;;;;;;47.27;24.47;;;1.80;99.90;;;;;;5105862;28;20295;-79
2020/12/12 02:17:08;;;;;;;47.73;24.23;;;1.90;99.90;;;;;;5110173;28;20297;-78
2020/12/12 02:19:35;;;;;;;52.50;24.77;;;1.90;99.90;;;;;;5109921;28;20220;-78
2020/12/12 02:22:05;;;;;;;46.67;24.73;;;1.90;99.90;;;;;;5110448;28;20205;-77
2020/12/12 02:24:33;;;;;;;50.03;25.50;;;1.90;99.90;;;;;;5109891;28;20572;-78
2020/12/12 02:27:00;;;;;;;51.33;25.40;;;1.80;99.90;;;;;;5110356;28;20285;-78
2020/12/12 02:29:38;;;;;;;49.40;23.97;;;1.90;99.90;;;;;;5109685;28;20222;-77
2020/12/12 02:32:05;;;;;;;50.40;24.97;;;1.80;99.90;;;;;;5109638;28;20205;-77
2020/12/12 02:34:31;;;;;;;47.77;23.87;;;1.80;99.90;;;;;;5109918;28;20206;-79
2020/12/12 02:36:57;;;;;;;50.03;25.27;;;1.80;99.90;;;;;;5110175;28;20288;-79
2020/12/12 02:39:25;;;;;;;46.27;24.47;;;1.80;99.90;;;;;;5108821;28;20296;-78
2020/12/12 02:41:51;;;;;;;49.27;24.73;;;1.90;99.90;;;;;;5109895;28;20212;-78
2020/12/12 02:44:17;;;;;;;48.97;25.03;;;1.90;99.90;;;;;;5109849;27;20225;-79
2020/12/12 02:46:44;;;;;;;46.13;24.90;;;1.80;99.90;;;;;;5109849;28;20198;-78
2020/12/12 02:49:10;;;;;;;46.60;25.17;;;1.80;99.90;;;;;;5109514;28;20234;-79
2020/12/12 02:51:39;;;;;;;46.13;23.63;;;1.90;99.90;;;;;;5109717;28;20234;-79
2020/12/12 02:54:05;;;;;;;49.37;24.50;;;1.80;99.90;;;;;;5109094;28;20287;-78
2020/12/12 02:56:33;;;;;;;47.23;25.67;;;1.80;99.90;;;;;;5109618;28;20233;-78
2020/12/12 02:58:59;;;;;;;46.40;23.50;;;1.80;99.90;;;;;;5109893;28;20205;-78
2020/12/12 03:01:26;;;;;;;51.33;25.27;;;1.80;99.90;;;;;;5108758;28;20202;-77
2020/12/12 03:03:52;;;;;;;48.80;23.77;;;1.80;99.90;;;;;;5109222;28;20293;-78
2020/12/12 03:06:19;;;;;;;47.20;24.03;;;1.80;99.90;;;;;;5109450;28;20285;-78
2020/12/12 03:08:45;;;;;;;50.57;25.13;;;1.80;99.90;;;;;;5109252;28;20740;-77
2020/12/12 03:11:11;;;;;;;49.43;24.73;;;1.80;99.90;;;;;;5109441;28;20265;-78
2020/12/12 03:13:39;;;;;;;52.27;25.53;;;1.80;99.90;;;;;;5109574;28;20237;-77
2020/12/12 03:16:05;;;;;;;43.53;23.70;;;1.80;99.90;;;;;;5109574;28;20292;-78
2020/12/12 03:18:31;;;;;;;45.97;23.73;;;1.80;99.90;;;;;;5109339;28;20204;-78
2020/12/12 03:20:58;;;;;;;47.00;23.37;;;1.80;99.90;;;;;;5109474;27;20304;-78
2020/12/12 03:23:24;;;;;;;45.27;23.80;;;1.80;99.90;;;;;;5108693;28;20202;-78
2020/12/12 03:25:50;;;;;;;48.60;24.80;;;1.80;99.90;;;;;;5108980;28;20206;-78
2020/12/12 03:28:17;;;;;;;47.20;24.13;;;1.80;99.90;;;;;;5109151;28;20297;-78
2020/12/12 03:30:44;;;;;;;46.20;24.00;;;1.80;99.90;;;;;;5108678;28;20221;-78
2020/12/12 03:33:10;;;;;;;42.83;23.50;;;1.80;99.90;;;;;;5109173;28;20232;-80
2020/12/12 03:35:36;;;;;;;44.87;23.00;;;1.80;99.90;;;;;;5109363;28;20220;-80
2020/12/12 03:38:03;;;;;;;43.47;23.17;;;1.80;99.90;;;;;;5109422;28;20244;-80
2020/12/12 03:40:29;;;;;;;44.67;23.70;;;1.80;99.90;;;;;;5109170;28;20573;-79
2020/12/12 03:42:56;;;;;;;46.90;23.47;;;1.80;99.90;;;;;;5109246;28;20270;-80
2020/12/12 03:45:23;;;;;;;48.87;24.03;;;1.80;99.90;;;;;;5108701;28;20213;-81
2020/12/12 03:47:50;;;;;;;43.47;22.77;;;1.80;99.90;;;;;;5108925;28;20317;-80
2020/12/12 03:50:17;;;;;;;45.50;23.43;;;1.80;99.90;;;;;;5108693;28;20316;-80
2020/12/12 03:52:43;;;;;;;41.97;22.47;;;1.80;99.90;;;;;;5107964;28;20289;-81
2020/12/12 03:55:09;;;;;;;41.10;23.87;;;1.80;99.90;;;;;;5108783;28;20190;-80
2020/12/12 03:57:36;;;;;;;46.40;23.23;;;1.80;99.90;;;;;;5108760;28;20234;-80
2020/12/12 04:00:03;;;;;;;43.53;23.27;;;1.80;99.90;;;;;;5108698;28;20210;-80
2020/12/12 04:02:30;;;;;;;45.77;22.23;;;1.80;99.90;;;;;;5108583;28;20301;-81
2020/12/12 04:04:57;;;;;;;45.40;22.00;;;1.80;99.90;;;;;;5108538;28;20293;-80
2020/12/12 04:07:23;;;;;;;43.17;22.57;;;1.80;99.90;;;;;;5108763;28;20565;-79
2020/12/12 04:09:50;;;;;;;38.87;22.27;;;1.80;99.90;;;;;;5108953;28;20226;-78
2020/12/12 04:12:16;;;;;;;40.93;22.93;;;1.80;99.90;;;;;;5108687;28;20225;-78
2020/12/12 04:14:43;;;;;;;41.33;22.67;;;1.80;99.90;;;;;;5108870;28;20293;-78
2020/12/12 04:17:09;;;;;;;43.27;23.10;;;1.80;99.90;;;;;;5108702;28;20293;-78
2020/12/12 04:19:36;;;;;;;43.30;23.47;;;1.80;99.90;;;;;;5108572;28;20206;-80
2020/12/12 04:22:03;;;;;;;41.17;22.83;;;1.80;99.90;;;;;;5108891;28;20224;-80
2020/12/12 04:24:30;;;;;;;39.50;21.57;;;1.80;99.90;;;;;;5108557;28;20209;-80
2020/12/12 04:26:56;;;;;;;38.07;22.50;;;1.70;99.90;;;;;;5108692;28;20301;-80
2020/12/12 04:29:22;;;;;;;41.93;22.50;;;1.70;99.90;;;;;;5108571;28;20309;-78
2020/12/12 04:31:49;;;;;;;38.63;21.37;;;1.70;99.90;;;;;;5108645;28;20301;-78
2020/12/12 04:34:15;;;;;;;37.23;21.87;;;1.70;99.90;;;;;;5108583;28;20297;-78
2020/12/12 04:36:42;;;;;;;40.90;21.87;;;1.70;99.90;;;;;;5108342;28;20297;-79
2020/12/12 04:39:09;;;;;;;42.47;23.27;;;1.70;99.90;;;;;;5108490;28;20216;-79
2020/12/12 04:41:39;;;;;;;44.13;22.77;;;1.70;99.90;;;;;;5108450;28;20308;-79
2020/12/12 04:44:06;;;;;;;39.97;21.97;;;1.70;99.90;;;;;;5108471;28;20212;-79
2020/12/12 04:46:32;;;;;;;35.17;20.07;;;1.70;99.90;;;;;;5108394;28;20584;-79
2020/12/12 04:48:59;;;;;;;39.60;21.93;;;1.70;99.90;;;;;;5108396;28;20234;-79
2020/12/12 04:51:26;;;;;;;37.07;21.43;;;1.70;99.90;;;;;;5108167;28;20672;-79
2020/12/12 04:53:56;;;;;;;40.67;21.07;;;1.70;99.90;;;;;;5107736;28;20708;-79
2020/12/12 04:56:25;;;;;;;37.47;21.03;;;1.70;99.90;;;;;;5108421;28;20203;-79
2020/12/12 04:58:52;;;;;;;37.30;20.90;;;1.70;99.90;;;;;;5108188;28;20568;-79
2020/12/12 05:01:19;;;;;;;39.80;21.93;;;1.70;99.90;;;;;;5108202;28;20643;-79
2020/12/12 05:03:47;;;;;;;35.30;20.87;;;1.70;99.90;;;;;;5109790;28;20756;-78
2020/12/12 05:06:13;;;;;;;37.17;20.43;;;1.70;99.90;;;;;;5112020;28;20198;-78
2020/12/12 05:08:39;;;;;;;30.50;18.73;;;1.70;99.90;;;;;;5111925;28;20483;-77
2020/12/12 05:11:06;;;;;;;36.00;20.10;;;1.70;99.90;;;;;;5111903;28;20230;-77
2020/12/12 05:13:33;;;;;;;36.40;20.50;;;1.70;99.90;;;;;;5111560;28;20210;-77
2020/12/12 05:16:00;;;;;;;39.07;21.53;;;1.70;99.90;;;;;;5111668;28;20210;-77
2020/12/12 05:18:27;;;;;;;34.03;19.77;;;1.70;99.90;;;;;;5111477;28;20210;-77
2020/12/12 05:20:53;;;;;;;36.60;21.07;;;1.70;99.90;;;;;;5111182;28;20217;-77
2020/12/12 05:23:21;;;;;;;34.77;20.10;;;1.70;99.90;;;;;;5111242;28;20297;-78
2020/12/12 05:25:48;;;;;;;34.33;19.57;;;1.70;99.90;;;;;;5111321;28;20370;-78
2020/12/12 05:28:17;;;;;;;30.70;19.33;;;1.70;99.90;;;;;;5111143;27;20212;-77
2020/12/12 05:30:46;;;;;;;38.53;21.23;;;1.70;99.90;;;;;;5111491;28;20226;-76
2020/12/12 05:33:15;;;;;;;34.53;20.23;;;1.70;99.90;;;;;;5111163;28;20674;-80
2020/12/12 05:35:42;;;;;;;33.67;20.53;;;1.70;99.90;;;;;;5111416;28;20229;-80
2020/12/12 05:38:10;;;;;;;34.93;20.90;;;1.70;99.90;;;;;;5111523;28;20301;-78
2020/12/12 05:40:36;;;;;;;34.13;20.13;;;1.70;99.90;;;;;;5111464;28;20643;-81
2020/12/12 05:43:04;;;;;;;37.30;21.33;;;1.70;99.90;;;;;;5111458;28;20212;-81
2020/12/12 05:45:30;;;;;;;34.63;21.10;;;1.70;99.90;;;;;;5111345;28;20569;-81
2020/12/12 05:47:58;;;;;;;34.23;20.90;;;1.70;99.90;;;;;;5111120;28;20716;-81
2020/12/12 05:50:24;;;;;;;35.13;20.73;;;1.70;99.90;;;;;;5111252;28;20236;-81
2020/12/12 05:52:53;;;;;;;34.80;19.63;;;1.60;99.90;;;;;;5110999;28;20797;-81
2020/12/12 05:55:22;;;;;;;35.57;20.43;;;1.70;99.90;;;;;;5110781;28;20640;-81
2020/12/12 05:57:52;;;;;;;34.37;20.53;;;1.60;99.90;;;;;;5110683;28;20732;-79
2020/12/12 06:00:20;;;;;;;35.87;20.00;;;1.60;99.90;;;;;;5110866;28;20206;-80
2020/12/12 06:02:53;;;;;;;34.03;21.10;;;1.70;99.90;;;;;;5110941;28;20217;-78
2020/12/12 06:05:25;;;;;;;35.90;20.43;;;1.70;99.90;;;;;;5110843;28;20197;-78
2020/12/12 06:07:54;;;;;;;31.80;20.17;;;1.60;99.90;;;;;;5110841;28;20278;-78
2020/12/12 06:10:28;;;;;;;37.20;20.57;;;1.60;99.90;;;;;;5110342;28;20588;-78
2020/12/12 06:12:58;;;;;;;30.47;18.57;;;1.60;99.90;;;;;;5110903;28;20297;-78
2020/12/12 06:15:36;;;;;;;33.73;20.07;;;1.60;99.90;;;;;;5110270;28;20251;-77
2020/12/12 06:18:18;;;;;;;37.27;20.53;;;1.60;99.90;;;;;;5110808;28;20221;-78
2020/12/12 06:20:46;;;;;;;31.53;19.90;;;1.60;99.90;;;;;;5110375;28;20680;-78
2020/12/12 06:23:13;;;;;;;32.80;19.67;;;1.60;99.90;;;;;;5110408;28;20206;-77
2020/12/12 06:25:40;;;;;;;29.83;20.17;;;1.60;99.90;;;;;;5110110;28;20228;-78
2020/12/12 06:28:10;;;;;;;32.60;20.07;;;1.60;99.90;;;;;;5110514;28;20285;-76
2020/12/12 06:30:38;;;;;;;30.87;19.70;;;1.60;99.90;;;;;;5110197;28;20221;-76
2020/12/12 06:33:05;;;;;;;29.37;20.30;;;1.60;99.90;;;;;;5110390;28;20292;-76
2020/12/12 06:35:32;;;;;;;35.20;20.17;;;1.60;99.90;;;;;;5109719;28;20296;-76
2020/12/12 06:38:20;;;;;;;31.07;20.33;;;1.60;99.90;;;;;;5109704;28;20240;-80
2020/12/12 06:40:48;;;;;;;32.43;20.40;;;1.60;99.90;;;;;;5110078;28;20243;-80
2020/12/12 06:43:33;;;;;;;31.27;20.20;;;1.60;99.90;;;;;;5110202;28;20210;-80
2020/12/12 06:46:01;;;;;;;32.93;20.37;;;1.60;99.90;;;;;;5108892;28;20209;-80
2020/12/12 06:48:29;;;;;;;35.67;21.37;;;1.60;99.90;;;;;;5109417;28;20731;-80
2020/12/12 06:50:57;;;;;;;30.97;20.30;;;1.60;99.90;;;;;;5105815;28;20225;-79
2020/12/12 06:53:26;;;;;;;30.67;19.70;;;1.60;99.90;;;;;;5098343;28;20273;-78
2020/12/12 06:56:14;;;;;;;31.80;20.07;;;1.60;99.90;;;;;;5095608;28;20499;-78
2020/12/12 06:58:41;;;;;;;31.80;19.60;;;1.60;99.90;;;;;;5097186;28;20285;-78
2020/12/12 07:01:27;;;;;;;31.60;20.63;;;1.60;99.90;;;;;;5099452;28;20217;-80
2020/12/12 07:04:01;;;;;;;30.63;19.13;;;1.60;99.90;;;;;;5099815;28;20202;-78
2020/12/12 07:06:29;;;;;;;30.00;19.30;;;1.60;99.90;;;;;;5096792;28;20244;-79
2020/12/12 07:09:01;;;;;;;28.33;18.30;;;1.60;99.90;;;;;;5098898;28;20198;-80
2020/12/12 07:11:28;;;;;;;28.50;19.50;;;1.60;99.90;;;;;;5096777;28;20605;-79
2020/12/12 07:13:55;;;;;;;35.13;20.90;;;1.60;99.90;;;;;;5096934;28;20207;-79
2020/12/12 07:16:21;;;;;;;30.73;20.17;;;1.60;99.90;;;;;;5094060;28;20289;-80
2020/12/12 07:18:49;;;;;;;30.93;20.37;;;1.60;99.90;;;;;;5091788;28;20282;-80
2020/12/12 07:21:16;;;;;;;28.60;19.20;;;1.60;99.90;;;;;;5105668;28;20194;-78
2020/12/12 07:23:43;;;;;;;32.07;19.90;;;1.60;99.90;;;;;;5091304;28;20289;-78
2020/12/12 07:26:10;;;;;;;28.87;19.13;;;1.60;99.90;;;;;;5098380;28;20213;-78
2020/12/12 07:28:37;;;;;;;34.70;20.53;;;1.70;99.90;;;;;;5096829;28;20239;-78
2020/12/12 07:31:03;;;;;;;32.93;19.77;;;1.60;99.90;;;;;;5098221;28;20280;-77
2020/12/12 07:33:30;;;;;;;30.57;20.00;;;1.60;99.90;;;;;;5097467;28;20199;-78
2020/12/12 07:35:57;;;;;;;28.73;19.23;;;1.70;99.90;;;;;;5096703;28;20281;-76
2020/12/12 07:38:24;;;;;;;29.30;19.07;;;1.70;99.90;;;;;;5087720;28;20242;-83
2020/12/12 07:40:53;;;;;;;32.10;19.93;;;1.70;99.90;;;;;;5085233;28;20210;-80
2020/12/12 07:43:20;;;;;;;27.90;19.70;;;1.80;99.90;;;;;;5083922;28;20245;-80
2020/12/12 07:45:56;;;;;;;31.10;20.13;;;1.80;99.90;;;;;;5099215;28;20305;-80
2020/12/12 07:48:23;;;;;;;33.87;21.33;;;1.80;99.90;;;;;;5102068;28;20229;-79
2020/12/12 07:50:49;;;;;;;31.10;20.07;;;1.80;99.90;;;;;;5086873;28;20226;-79
2020/12/12 07:53:19;;;;;;;29.53;19.73;;;1.90;99.90;;;;;;5084082;28;20333;-79
2020/12/12 07:55:55;;;;;;;32.10;20.77;;;1.90;99.90;;;;;;5084275;28;20210;-79
2020/12/12 07:58:25;;;;;;;32.33;23.53;;;1.90;99.90;;;;;;5091676;28;20228;-80
2020/12/12 08:00:59;;;;;;;71.83;63.17;;;1.90;99.90;;;;;;5086448;28;20214;-81
2020/12/12 08:03:25;;;;;;;34.50;22.47;;;2.00;99.90;;;;;;5084156;28;20329;-78
2020/12/12 08:06:04;;;;;;;33.77;20.57;;;2.00;99.90;;;;;;5084637;28;20206;-78
2020/12/12 08:08:31;;;;;;;32.27;21.63;;;2.00;99.90;;;;;;5084407;28;20199;-79
2020/12/12 08:10:59;;;;;;;33.47;22.17;;;2.00;99.90;;;;;;5093621;28;20256;-82
2020/12/12 08:13:27;;;;;;;33.33;21.03;;;2.00;99.90;;;;;;5084567;28;20581;-79
2020/12/12 08:16:07;;;;;;;33.57;21.77;;;2.10;99.90;;;;;;5091690;28;20294;-78
2020/12/12 08:18:33;;;;;;;34.30;22.17;;;2.10;99.90;;;;;;5101181;28;20200;-78
2020/12/12 08:21:10;;;;;;;34.17;22.33;;;2.10;99.90;;;;;;5104544;28;20206;-78
2020/12/12 08:23:37;;;;;;;33.63;21.93;;;2.10;99.90;;;;;;5105014;28;20502;-78
2020/12/12 08:26:05;;;;;;;33.77;22.47;;;2.10;99.90;;;;;;5105870;28;20293;-78
2020/12/12 08:28:33;;;;;;;32.70;22.03;;;2.10;99.90;;;;;;5105061;28;20289;-78
2020/12/12 08:31:10;;;;;;;32.90;22.23;;;2.10;99.90;;;;;;5098203;28;20242;-80
2020/12/12 08:33:36;;;;;;;31.53;21.97;;;2.10;99.90;;;;;;5088241;28;20212;-80
2020/12/12 08:36:18;;;;;;;33.73;22.40;;;2.20;99.90;;;;;;5098401;28;20731;-79
2020/12/12 08:38:51;;;;;;;36.20;22.60;;;2.20;99.90;;;;;;5089987;28;20209;-79
2020/12/12 08:41:18;;;;;;;31.50;21.73;;;2.20;99.90;;;;;;5091657;28;20460;-80
2020/12/12 08:43:46;;;;;;;30.97;21.60;;;2.20;99.90;;;;;;5091481;28;20203;-79
2020/12/12 08:46:20;;;;;;;35.60;22.17;;;2.30;99.90;;;;;;5098822;28;20226;-80
2020/12/12 08:48:46;;;;;;;31.90;22.57;;;2.30;99.90;;;;;;5104604;28;20277;-80
2020/12/12 08:51:12;;;;;;;31.70;21.97;;;2.30;99.90;;;;;;5111834;28;20321;-79
2020/12/12 08:53:40;;;;;;;33.90;22.50;;;2.30;99.90;;;;;;5094563;28;20320;-79
2020/12/12 08:56:12;;;;;;;36.53;22.10;;;2.30;99.90;;;;;;5112032;27;20360;-78
2020/12/12 08:58:47;;;;;;;33.17;21.80;;;2.40;99.90;;;;;;5100060;28;20254;-79
2020/12/12 09:01:34;;;;;;;34.57;22.27;;;2.40;99.90;;;;;;5107372;28;20237;-80
2020/12/12 09:04:03;;;;;;;32.97;22.77;;;2.40;99.90;;;;;;5100460;28;20242;-79
2020/12/12 09:06:33;;;;;;;31.83;21.03;;;2.40;99.90;;;;;;5104250;28;20209;-77
2020/12/12 09:09:08;;;;;;;35.07;22.33;;;2.40;99.90;;;;;;5112065;28;20378;-79
2020/12/12 09:11:35;;;;;;;36.17;22.53;;;2.40;99.90;;;;;;5099115;28;20227;-79
2020/12/12 09:14:03;;;;;;;33.80;21.80;;;2.50;99.90;;;;;;5094575;28;20238;-79
2020/12/12 09:16:29;;;;;;;31.03;21.57;;;2.50;99.90;;;;;;5098932;28;20234;-78
2020/12/12 09:18:57;;;;;;;30.67;21.83;;;2.50;99.90;;;;;;5105020;28;20200;-78
2020/12/12 09:21:23;;;;;;;35.43;22.07;;;2.50;99.90;;;;;;5107681;28;20655;-79
2020/12/12 09:23:50;;;;;;;34.63;22.67;;;2.50;99.90;;;;;;5107624;28;20216;-79
2020/12/12 09:26:19;;;;;;;32.83;22.13;;;2.50;99.90;;;;;;5108405;28;20292;-78
2020/12/12 09:28:45;;;;;;;33.57;22.03;;;2.50;99.90;;;;;;5104330;28;20321;-78
2020/12/12 09:31:15;;;;;;;35.40;24.00;;;2.50;99.90;;;;;;5101930;28;20587;-78
2020/12/12 09:33:42;;;;;;;34.27;22.77;;;2.50;99.90;;;;;;5088910;27;20209;-78
2020/12/12 09:36:08;;;;;;;53.97;39.80;;;2.50;99.90;;;;;;5093234;28;20297;-81
2020/12/12 09:38:35;;;;;;;44.57;31.93;;;2.50;99.90;;;;;;5099212;28;20568;-79
2020/12/12 09:41:01;;;;;;;44.97;34.83;;;2.50;99.90;;;;;;5098180;28;20286;-78
2020/12/12 09:43:28;;;;;;;35.40;23.13;;;2.60;99.90;;;;;;5089905;28;20203;-78
2020/12/12 09:45:54;;;;;;;37.53;24.60;;;2.60;99.90;;;;;;5089992;28;20671;-78
2020/12/12 09:48:22;;;;;;;40.83;24.17;;;2.50;99.90;;;;;;5090211;28;20317;-78
2020/12/12 09:50:48;;;;;;;38.27;23.93;;;2.50;99.90;;;;;;5089923;28;20518;-78
2020/12/12 09:53:15;;;;;;;37.57;23.67;;;2.50;99.90;;;;;;5089376;28;20907;-79
2020/12/12 09:55:42;;;;;;;37.53;23.73;;;2.50;99.90;;;;;;5090247;28;20207;-78
2020/12/12 09:58:08;;;;;;;36.93;24.17;;;2.50;99.90;;;;;;5090435;28;20213;-78
2020/12/12 10:00:37;;;;;;;37.10;23.33;;;2.50;99.90;;;;;;5090511;28;20206;-78
2020/12/12 10:03:05;;;;;;;38.03;23.10;;;2.50;99.90;;;;;;5090348;28;20293;-78
2020/12/12 10:05:33;;;;;;;39.67;23.67;;;2.40;99.90;;;;;;5090288;28;20297;-78
2020/12/12 10:08:00;;;;;;;37.57;23.93;;;2.40;99.90;;;;;;5090397;28;20215;-78
2020/12/12 10:10:28;;;;;;;36.60;24.23;;;2.40;99.90;;;;;;5090198;28;20237;-79
2020/12/12 10:12:54;;;;;;;36.40;24.03;;;2.40;99.90;;;;;;5090364;28;20214;-78
2020/12/12 10:15:21;;;;;;;40.70;23.30;;;2.30;99.90;;;;;;5101630;28;20212;-78
2020/12/12 10:17:49;;;;;;;37.63;24.50;;;2.30;99.90;;;;;;5110338;28;20208;-78
2020/12/12 10:20:16;;;;;;;39.43;24.87;;;2.30;99.90;;;;;;5110409;28;20206;-79
2020/12/12 10:22:44;;;;;;;41.37;24.57;;;2.30;99.90;;;;;;5110233;28;20202;-78
2020/12/12 10:25:11;;;;;;;40.07;23.23;;;2.30;99.90;;;;;;5110207;28;20685;-78
2020/12/12 10:27:38;;;;;;;42.33;23.93;;;2.30;99.90;;;;;;5110470;28;20217;-78
2020/12/12 10:30:06;;;;;;;38.83;24.00;;;2.30;99.90;;;;;;5110395;28;20210;-79
2020/12/12 10:32:33;;;;;;;40.30;24.17;;;2.30;99.90;;;;;;5109442;28;20735;-78
2020/12/12 10:34:59;;;;;;;37.33;23.50;;;2.20;99.90;;;;;;5110040;28;20214;-79
2020/12/12 10:37:25;;;;;;;36.93;23.80;;;2.30;99.90;;;;;;5109391;28;20206;-78
2020/12/12 10:39:56;;;;;;;39.10;24.13;;;2.30;99.90;;;;;;5109472;28;20202;-78
2020/12/12 10:42:23;;;;;;;42.27;23.97;;;2.30;99.90;;;;;;5097047;28;20201;-77
2020/12/12 10:44:49;;;;;;;39.67;23.80;;;2.30;99.90;;;;;;5096525;28;20218;-78
2020/12/12 10:47:15;;;;;;;38.53;22.90;;;2.30;99.90;;;;;;5110008;28;20253;-77
2020/12/12 10:49:42;;;;;;;37.07;23.13;;;2.30;99.90;;;;;;5106047;28;20285;-77
2020/12/12 10:52:08;;;;;;;38.90;23.10;;;2.40;99.90;;;;;;5102116;28;20337;-78
2020/12/12 10:54:35;;;;;;;38.80;23.10;;;2.40;99.90;;;;;;5108879;28;20238;-77
2020/12/12 10:57:02;;;;;;;35.77;23.17;;;2.40;99.90;;;;;;5107602;28;20213;-78
2020/12/12 10:59:28;;;;;;;38.20;23.43;;;2.40;99.90;;;;;;5100475;28;20733;-78
2020/12/12 11:01:56;;;;;;;37.60;23.30;;;2.40;99.90;;;;;;5107925;28;20233;-78
2020/12/12 11:04:23;;;;;;;38.00;23.87;;;2.40;99.90;;;;;;5108638;28;20213;-77
2020/12/12 11:06:51;;;;;;;38.33;23.50;;;2.50;99.90;;;;;;5108669;28;20296;-78
2020/12/12 11:09:17;;;;;;;43.17;24.43;;;2.60;99.90;;;;;;5101155;28;20716;-79
2020/12/12 11:11:43;;;;;;;40.83;24.63;;;2.90;99.90;;;;;;5088363;28;20325;-79
2020/12/12 11:14:11;;;;;;;39.67;23.97;;;3.10;99.90;;;;;;5088305;28;20206;-78
2020/12/12 11:16:37;;;;;;;38.60;24.70;;;3.30;99.90;;;;;;5088132;28;20297;-77
2020/12/12 11:19:04;;;;;;;38.13;24.33;;;3.30;99.90;;;;;;5089338;28;20199;-79
2020/12/12 11:21:31;;;;;;;37.40;22.70;;;3.50;99.90;;;;;;5090223;28;20238;-78
2020/12/12 11:23:58;;;;;;;36.13;23.73;;;3.60;99.90;;;;;;5092280;28;20229;-79
2020/12/12 11:26:25;;;;;;;38.70;24.47;;;3.70;99.90;;;;;;5094138;28;20198;-79
2020/12/12 11:28:51;;;;;;;38.07;24.57;;;3.70;99.90;;;;;;5090693;28;20682;-79
2020/12/12 11:31:21;;;;;;;34.67;23.43;;;3.80;99.90;;;;;;5104840;28;20230;-80
2020/12/12 11:33:49;;;;;;;35.37;23.10;;;3.80;99.90;;;;;;5104859;28;20292;-78
2020/12/12 11:36:30;;;;;;;36.80;22.93;;;3.80;99.90;;;;;;5105055;28;20218;-79
2020/12/12 11:38:59;;;;;;;34.60;22.60;;;3.80;99.90;;;;;;5104876;28;20290;-78
2020/12/12 11:41:44;;;;;;;36.70;23.27;;;3.90;99.90;;;;;;5095238;28;20200;-79
2020/12/12 11:44:25;;;;;;;37.00;23.63;;;3.90;99.90;;;;;;5085860;28;20198;-79
2020/12/12 11:46:52;;;;;;;31.63;21.73;;;4.00;99.90;;;;;;5104671;28;20221;-79
2020/12/12 11:49:20;;;;;;;36.60;22.83;;;3.90;99.90;;;;;;5104917;28;20219;-79
2020/12/12 11:51:47;;;;;;;36.30;22.37;;;3.90;99.90;;;;;;5105216;28;20244;-79
2020/12/12 11:54:13;;;;;;;34.97;22.60;;;3.80;99.90;;;;;;5099641;28;20230;-79
2020/12/12 11:56:39;;;;;;;34.17;21.83;;;3.90;99.90;;;;;;5102834;28;20209;-78
2020/12/12 11:59:06;;;;;;;35.07;22.17;;;3.90;99.90;;;;;;5104489;28;20220;-78
2020/12/12 12:01:32;;;;;;;33.43;22.37;;;3.80;99.90;;;;;;5105074;28;20586;-77
2020/12/12 12:03:59;;;;;;;36.73;22.27;;;3.70;99.90;;;;;;5097731;28;20706;-78
2020/12/12 12:06:26;;;;;;;32.07;21.07;;;3.60;99.90;;;;;;5084726;28;20211;-78
2020/12/12 12:09:10;;;;;;;35.53;22.63;;;3.60;99.90;;;;;;5084396;28;20221;-78
2020/12/12 12:11:37;;;;;;;32.53;20.57;;;3.60;99.90;;;;;;5083979;28;20407;-78
2020/12/12 12:14:06;;;;;;;31.57;20.43;;;3.60;99.90;;;;;;5088762;28;20746;-77
2020/12/12 12:16:36;;;;;;;33.70;21.33;;;3.60;99.90;;;;;;5108476;28;20209;-78
2020/12/12 12:19:04;;;;;;;32.60;20.77;;;3.60;99.90;;;;;;5091459;28;20229;-79
2020/12/12 12:21:31;;;;;;;32.43;20.33;;;3.60;99.90;;;;;;5091427;28;20786;-79
2020/12/12 12:23:57;;;;;;;31.73;21.10;;;3.60;99.90;;;;;;5091416;28;20206;-78
2020/12/12 12:26:24;;;;;;;36.43;22.30;;;3.60;99.90;;;;;;5092012;28;20205;-80
2020/12/12 12:28:50;;;;;;;31.97;20.93;;;3.60;99.90;;;;;;5091588;28;20203;-78
2020/12/12 12:31:20;;;;;;;32.57;21.17;;;3.60;99.90;;;;;;5091509;28;20321;-78
2020/12/12 12:33:47;;;;;;;31.70;21.00;;;3.50;99.90;;;;;;5091725;28;20198;-78
2020/12/12 12:36:15;;;;;;;33.57;21.27;;;3.50;99.90;;;;;;5091952;28;20203;-78
2020/12/12 12:38:42;;;;;;;33.60;20.57;;;3.50;99.90;;;;;;5091491;28;20207;-79
2020/12/12 12:41:08;;;;;;;33.00;19.93;;;3.50;99.90;;;;;;5091924;28;20681;-83